Time;durP1;ratioP1;P1;durP2;ratioP2;P2;SDS_P1;SDS_P2;PMS_P1;PMS_P2;Temp;Humidity;BMP_temperature;BMP_pressure;BME280_temperature;BME280_humidity;BME280_pressure;Samples;Min_cycle;Max_cycle;Signal;HPM_P1;HPM_P2
2021/11/16 00:00:49;;;;;;;30.35;16.55;;;6.50;89.70;;;;;;2090020;28;20075;-89
2021/11/16 00:01:50;;;;;;;29.10;15.70;;;6.50;89.70;;;;;;2105700;28;20143;-90
2021/11/16 00:02:51;;;;;;;26.27;15.63;;;6.50;89.80;;;;;;2083280;28;20072;-90
2021/11/16 00:03:53;;;;;;;27.70;15.25;;;6.50;89.80;;;;;;2089464;28;20050;-89
2021/11/16 00:04:54;;;;;;;33.90;17.77;;;6.50;89.80;;;;;;2106451;28;20073;-90
2021/11/16 00:05:55;;;;;;;29.70;16.30;;;6.50;89.70;;;;;;2106609;28;20066;-91
2021/11/16 00:06:55;;;;;;;30.25;16.75;;;6.50;89.70;;;;;;2103554;28;20139;-90
2021/11/16 00:07:57;;;;;;;30.05;16.75;;;6.50;89.70;;;;;;2106441;28;20067;-89
2021/11/16 00:08:58;;;;;;;28.48;15.88;;;6.50;89.70;;;;;;2114532;28;20401;-90
2021/11/16 00:09:59;;;;;;;27.73;15.63;;;6.50;89.70;;;;;;2095401;28;20041;-90
2021/11/16 00:10:59;;;;;;;27.75;15.13;;;6.50;89.70;;;;;;2089580;28;20641;-89
2021/11/16 00:12:01;;;;;;;30.98;16.88;;;6.50;89.70;;;;;;2089357;28;20079;-90
2021/11/16 00:13:04;;;;;;;28.35;16.05;;;6.50;89.70;;;;;;2097774;28;20050;-90
2021/11/16 00:14:04;;;;;;;29.30;16.33;;;6.50;89.70;;;;;;2098248;28;20394;-90
2021/11/16 00:15:06;;;;;;;27.98;16.10;;;6.50;89.70;;;;;;2097768;28;20064;-90
2021/11/16 00:16:07;;;;;;;28.42;15.30;;;6.50;89.70;;;;;;2089410;28;20025;-89
2021/11/16 00:17:08;;;;;;;28.25;16.00;;;6.50;89.70;;;;;;2088774;28;20029;-89
2021/11/16 00:18:10;;;;;;;27.88;15.55;;;6.50;89.80;;;;;;2089542;28;20077;-90
2021/11/16 00:19:15;;;;;;;26.98;15.13;;;6.50;89.80;;;;;;2097264;28;20448;-89
2021/11/16 00:20:17;;;;;;;26.00;14.23;;;6.50;89.90;;;;;;2098571;28;20119;-89
2021/11/16 00:21:19;;;;;;;26.35;14.57;;;6.50;89.90;;;;;;2098208;28;20111;-89
2021/11/16 00:22:22;;;;;;;26.75;14.40;;;6.50;89.90;;;;;;2097733;28;20484;-89
2021/11/16 00:23:25;;;;;;;24.80;13.80;;;6.60;90.00;;;;;;2083198;28;20025;-90
2021/11/16 00:24:38;;;;;;;26.30;14.23;;;6.50;90.20;;;;;;2082071;28;20447;-90
2021/11/16 00:25:39;;;;;;;24.52;13.88;;;6.60;89.90;;;;;;2091635;28;20148;-91
2021/11/16 00:26:41;;;;;;;23.95;14.07;;;6.60;89.90;;;;;;2103399;28;20044;-90
2021/11/16 00:27:43;;;;;;;23.50;13.48;;;6.60;89.90;;;;;;2097326;28;20082;-89
2021/11/16 00:28:44;;;;;;;26.90;14.38;;;6.60;90.20;;;;;;2093772;28;20029;-90
2021/11/16 00:29:45;;;;;;;26.40;15.40;;;6.60;89.80;;;;;;2106417;28;20032;-90
2021/11/16 00:30:46;;;;;;;28.75;15.60;;;6.60;89.70;;;;;;2101049;28;20120;-90
2021/11/16 00:31:46;;;;;;;27.33;15.10;;;6.60;89.70;;;;;;2109326;28;20020;-89
2021/11/16 00:32:47;;;;;;;27.63;15.18;;;6.60;89.80;;;;;;2121373;28;20013;-89
2021/11/16 00:33:48;;;;;;;28.65;14.98;;;6.60;89.80;;;;;;2102685;28;20009;-88
2021/11/16 00:34:49;;;;;;;28.27;16.30;;;6.60;90.20;;;;;;2095073;28;20013;-89
2021/11/16 00:35:50;;;;;;;29.02;16.13;;;6.60;89.80;;;;;;2113240;28;20012;-82
2021/11/16 00:36:52;;;;;;;29.00;16.17;;;6.50;89.80;;;;;;2119615;28;20036;-84
2021/11/16 00:37:53;;;;;;;29.42;16.35;;;6.60;89.80;;;;;;2111167;28;20101;-88
2021/11/16 00:38:54;;;;;;;36.13;18.95;;;6.50;89.80;;;;;;2111157;28;20043;-82
2021/11/16 00:39:56;;;;;;;31.48;17.98;;;6.50;89.90;;;;;;2119832;28;20012;-85
2021/11/16 00:40:57;;;;;;;33.22;17.02;;;6.50;89.90;;;;;;2119582;28;20089;-89
2021/11/16 00:41:57;;;;;;;35.08;17.73;;;6.50;89.90;;;;;;2117694;28;20065;-89
2021/11/16 00:42:58;;;;;;;31.63;17.30;;;6.50;89.90;;;;;;2113031;28;20122;-90
2021/11/16 00:43:59;;;;;;;36.05;19.38;;;6.50;89.90;;;;;;2113492;28;20443;-89
2021/11/16 00:45:00;;;;;;;34.38;18.15;;;6.50;89.90;;;;;;2114649;28;20028;-88
2021/11/16 00:46:01;;;;;;;30.75;17.35;;;6.50;89.90;;;;;;2113976;28;20080;-89
2021/11/16 00:47:02;;;;;;;31.42;17.42;;;6.50;89.90;;;;;;2100689;28;20471;-89
2021/11/16 00:48:04;;;;;;;30.38;17.25;;;6.40;90.00;;;;;;2101338;28;20044;-90
2021/11/16 00:49:05;;;;;;;28.02;16.10;;;6.40;90.00;;;;;;2103570;28;20032;-90
2021/11/16 00:50:06;;;;;;;28.88;16.50;;;6.50;90.00;;;;;;2096775;28;20033;-90
2021/11/16 00:51:08;;;;;;;32.08;16.90;;;6.50;90.00;;;;;;2102826;28;20048;-90
2021/11/16 00:52:09;;;;;;;28.77;16.58;;;6.50;90.00;;;;;;2111000;28;20024;-89
2021/11/16 00:53:10;;;;;;;30.73;16.80;;;6.50;90.00;;;;;;2105828;28;20116;-91
2021/11/16 00:54:11;;;;;;;29.70;16.00;;;6.50;90.20;;;;;;2102135;28;20035;-90
2021/11/16 00:55:12;;;;;;;29.63;16.65;;;6.50;90.00;;;;;;2085484;28;20488;-90
2021/11/16 00:56:13;;;;;;;29.05;16.65;;;6.40;90.00;;;;;;2100551;28;20029;-89
2021/11/16 00:57:13;;;;;;;31.83;17.60;;;6.50;90.00;;;;;;2114668;28;20027;-89
2021/11/16 00:58:14;;;;;;;31.58;16.77;;;6.50;90.00;;;;;;2117146;28;20107;-90
2021/11/16 00:59:15;;;;;;;31.08;17.00;;;6.40;90.00;;;;;;2116932;28;20034;-91
2021/11/16 01:00:18;;;;;;;28.90;15.73;;;6.50;90.00;;;;;;2100237;28;20033;-90
2021/11/16 01:01:18;;;;;;;29.98;17.35;;;6.50;90.00;;;;;;2108518;28;20032;-90
2021/11/16 01:02:19;;;;;;;31.52;16.63;;;6.40;90.00;;;;;;2099571;28;20028;-90
2021/11/16 01:03:21;;;;;;;29.15;16.60;;;6.40;90.00;;;;;;2096120;28;20051;-90
2021/11/16 01:04:22;;;;;;;33.35;18.23;;;6.40;90.00;;;;;;2100450;28;20498;-90
2021/11/16 01:05:23;;;;;;;31.08;17.00;;;6.40;90.00;;;;;;2100844;28;20028;-90
2021/11/16 01:06:23;;;;;;;29.33;16.83;;;6.40;90.00;;;;;;2100588;28;20036;-90
2021/11/16 01:07:24;;;;;;;31.50;17.27;;;6.40;90.00;;;;;;2087831;28;20061;-90
2021/11/16 01:08:25;;;;;;;35.70;18.10;;;6.40;90.00;;;;;;2091885;28;20029;-89
2021/11/16 01:09:26;;;;;;;30.60;17.08;;;6.40;90.00;;;;;;2083504;28;20040;-90
2021/11/16 01:10:27;;;;;;;30.23;17.33;;;6.50;90.00;;;;;;2088160;28;20025;-90
2021/11/16 01:11:28;;;;;;;27.35;15.68;;;6.50;90.00;;;;;;2091818;28;20479;-91
2021/11/16 01:12:29;;;;;;;30.02;16.27;;;6.50;90.00;;;;;;2092292;28;20064;-90
2021/11/16 01:13:29;;;;;;;27.05;14.90;;;6.40;90.10;;;;;;2098141;28;20141;-90
2021/11/16 01:14:30;;;;;;;27.67;15.60;;;6.50;90.10;;;;;;2086428;28;20026;-90
2021/11/16 01:15:34;;;;;;;26.60;15.35;;;6.50;90.10;;;;;;2087583;28;20045;-89
2021/11/16 01:16:35;;;;;;;26.15;14.85;;;6.50;90.10;;;;;;2101689;28;20089;-90
2021/11/16 01:17:36;;;;;;;27.95;15.18;;;6.50;90.10;;;;;;2116682;28;20076;-90
2021/11/16 01:18:37;;;;;;;25.95;14.85;;;6.50;90.10;;;;;;2104678;28;20028;-91
2021/11/16 01:19:38;;;;;;;24.55;14.35;;;6.50;90.10;;;;;;2100678;28;20074;-90
2021/11/16 01:20:40;;;;;;;26.85;15.25;;;6.50;90.10;;;;;;2100693;28;20059;-90
2021/11/16 01:21:41;;;;;;;28.23;15.80;;;6.60;90.10;;;;;;2091869;28;20028;-90
2021/11/16 01:22:43;;;;;;;25.48;14.88;;;6.50;90.10;;;;;;2075211;28;20048;-91
2021/11/16 01:23:46;;;;;;;28.40;16.13;;;6.50;90.10;;;;;;2083613;28;20053;-90
2021/11/16 01:24:47;;;;;;;28.02;15.52;;;6.60;90.10;;;;;;2095115;28;20486;-89
2021/11/16 01:25:48;;;;;;;29.40;16.33;;;6.60;90.10;;;;;;2092101;28;20030;-91
2021/11/16 01:26:49;;;;;;;28.13;15.95;;;6.60;90.10;;;;;;2068933;28;20054;-89
2021/11/16 01:27:51;;;;;;;29.70;16.65;;;6.60;90.10;;;;;;2092157;28;20421;-89
2021/11/16 01:28:52;;;;;;;29.98;16.67;;;6.50;90.10;;;;;;2092519;28;20029;-90
2021/11/16 01:29:54;;;;;;;28.98;16.38;;;6.50;90.10;;;;;;2092317;28;20409;-89
2021/11/16 01:30:58;;;;;;;28.10;16.40;;;6.50;90.10;;;;;;2088722;28;20056;-89
2021/11/16 01:31:59;;;;;;;31.50;17.00;;;6.50;90.10;;;;;;2101495;28;20052;-89
2021/11/16 01:33:13;;;;;;;30.33;16.65;;;6.50;90.10;;;;;;2108790;28;20035;-89
2021/11/16 01:34:13;;;;;;;32.20;17.15;;;6.50;90.20;;;;;;2101781;28;20021;-89
2021/11/16 01:35:15;;;;;;;31.92;16.98;;;6.50;90.20;;;;;;2093184;28;20069;-89
2021/11/16 01:36:16;;;;;;;29.15;16.35;;;6.50;90.20;;;;;;2108645;28;20039;-90
2021/11/16 01:37:17;;;;;;;32.80;17.23;;;6.50;90.20;;;;;;2099482;28;20024;-90
2021/11/16 01:38:19;;;;;;;29.60;16.73;;;6.40;90.10;;;;;;2098828;28;20056;-90
2021/11/16 01:39:20;;;;;;;28.00;15.85;;;6.50;90.20;;;;;;2090768;28;20052;-90
2021/11/16 01:40:21;;;;;;;30.13;16.75;;;6.50;90.40;;;;;;2091364;28;20578;-90
2021/11/16 01:41:22;;;;;;;34.38;18.05;;;6.50;90.20;;;;;;2098925;28;20487;-90
2021/11/16 01:42:23;;;;;;;30.13;17.52;;;6.40;90.10;;;;;;2107413;28;20522;-90
2021/11/16 01:43:24;;;;;;;35.60;19.38;;;6.50;90.20;;;;;;2114368;28;20039;-90
2021/11/16 01:44:25;;;;;;;31.92;18.42;;;6.40;90.10;;;;;;2090602;28;20064;-90
2021/11/16 01:45:26;;;;;;;32.03;17.73;;;6.40;90.10;;;;;;2099556;28;20106;-89
2021/11/16 01:46:27;;;;;;;34.97;18.75;;;6.40;90.10;;;;;;2103838;28;20032;-90
2021/11/16 01:47:28;;;;;;;33.88;18.30;;;6.40;90.20;;;;;;2107288;28;20559;-90
2021/11/16 01:48:30;;;;;;;34.75;18.55;;;6.40;90.20;;;;;;2090537;28;20180;-90
2021/11/16 01:49:31;;;;;;;32.97;18.20;;;6.40;90.20;;;;;;2074894;28;20373;-90
2021/11/16 01:50:32;;;;;;;32.00;17.98;;;6.40;90.20;;;;;;2099188;28;20070;-90
2021/11/16 01:51:33;;;;;;;28.27;16.65;;;6.40;90.20;;;;;;2107414;28;20078;-90
2021/11/16 01:52:33;;;;;;;31.48;17.20;;;6.40;90.30;;;;;;2107174;28;20064;-89
2021/11/16 01:53:35;;;;;;;28.63;15.80;;;6.40;90.30;;;;;;2101604;28;20021;-90
2021/11/16 01:54:37;;;;;;;29.98;16.55;;;6.40;90.20;;;;;;2107517;28;20501;-90
2021/11/16 01:55:38;;;;;;;28.05;15.48;;;6.40;90.30;;;;;;2115585;28;20020;-90
2021/11/16 01:56:42;;;;;;;30.90;16.17;;;6.40;90.20;;;;;;2112596;28;20027;-89
2021/11/16 01:57:43;;;;;;;29.00;15.75;;;6.50;90.30;;;;;;2115816;28;20030;-90
2021/11/16 01:58:44;;;;;;;27.30;16.25;;;6.50;90.20;;;;;;2108475;28;20047;-89
2021/11/16 01:59:45;;;;;;;28.77;15.95;;;6.50;90.20;;;;;;2116418;28;20043;-90
2021/11/16 02:00:46;;;;;;;28.27;15.65;;;6.50;90.20;;;;;;2115488;28;20031;-90
2021/11/16 02:01:49;;;;;;;27.77;15.93;;;6.50;90.20;;;;;;2115868;28;20027;-89
2021/11/16 02:02:50;;;;;;;28.30;15.75;;;6.50;90.30;;;;;;2116399;28;20046;-89
2021/11/16 02:03:52;;;;;;;28.33;14.82;;;6.50;90.20;;;;;;2113567;28;20024;-90
2021/11/16 02:04:53;;;;;;;27.27;14.77;;;6.50;90.30;;;;;;2107467;28;20077;-89
2021/11/16 02:05:56;;;;;;;27.85;15.90;;;6.50;90.30;;;;;;2107327;28;20024;-90
2021/11/16 02:06:57;;;;;;;28.23;15.57;;;6.50;90.30;;;;;;2104489;28;20028;-89
2021/11/16 02:07:58;;;;;;;26.42;15.32;;;6.50;90.30;;;;;;2107002;28;20012;-90
2021/11/16 02:09:01;;;;;;;26.33;15.07;;;6.60;90.30;;;;;;2105906;28;20116;-90
2021/11/16 02:10:03;;;;;;;24.88;13.75;;;6.60;90.30;;;;;;2105815;28;20024;-89
2021/11/16 02:11:03;;;;;;;26.02;13.95;;;6.60;90.30;;;;;;2099004;28;20033;-90
2021/11/16 02:12:05;;;;;;;25.83;14.00;;;6.60;90.30;;;;;;2085254;28;20072;-90
2021/11/16 02:13:05;;;;;;;28.17;14.63;;;6.60;90.30;;;;;;2082412;28;20022;-90
2021/11/16 02:14:09;;;;;;;25.80;14.30;;;6.60;90.30;;;;;;2085435;28;20030;-90
2021/11/16 02:15:11;;;;;;;27.67;14.73;;;6.60;90.30;;;;;;2100981;28;20017;-90
2021/11/16 02:16:12;;;;;;;27.08;14.07;;;6.60;90.20;;;;;;2114392;28;20036;-90
2021/11/16 02:17:13;;;;;;;24.88;14.10;;;6.60;90.20;;;;;;2108884;28;20028;-90
2021/11/16 02:18:14;;;;;;;26.15;14.68;;;6.60;90.20;;;;;;2116404;28;20024;-90
2021/11/16 02:19:17;;;;;;;27.13;15.27;;;6.60;90.20;;;;;;2117631;28;20044;-85
2021/11/16 02:20:18;;;;;;;24.35;14.00;;;6.60;90.20;;;;;;2117614;28;20024;-88
2021/11/16 02:21:19;;;;;;;25.42;14.80;;;6.60;90.30;;;;;;2125519;28;20031;-86
2021/11/16 02:22:20;;;;;;;26.00;13.95;;;6.60;90.30;;;;;;2108670;28;20024;-89
2021/11/16 02:23:21;;;;;;;26.23;14.32;;;6.60;90.30;;;;;;2100857;28;20029;-90
2021/11/16 02:24:21;;;;;;;27.70;14.45;;;6.60;90.30;;;;;;2100616;28;20025;-85
2021/11/16 02:25:22;;;;;;;25.27;14.13;;;6.60;90.30;;;;;;2092902;28;20024;-86
2021/11/16 02:26:24;;;;;;;25.98;14.18;;;6.60;90.30;;;;;;2092042;28;20040;-91
2021/11/16 02:27:24;;;;;;;26.60;14.57;;;6.60;90.30;;;;;;2106686;28;20021;-90
2021/11/16 02:28:26;;;;;;;25.90;14.40;;;6.70;90.30;;;;;;2113410;28;20030;-90
2021/11/16 02:29:26;;;;;;;27.10;14.43;;;6.60;90.30;;;;;;2102073;28;20036;-90
2021/11/16 02:30:27;;;;;;;29.77;15.02;;;6.70;90.30;;;;;;2104378;28;20035;-90
2021/11/16 02:31:28;;;;;;;26.08;15.25;;;6.70;90.30;;;;;;2108464;28;20039;-89
2021/11/16 02:32:30;;;;;;;25.52;15.00;;;6.60;90.30;;;;;;2104754;28;20474;-90
2021/11/16 02:33:31;;;;;;;26.25;14.60;;;6.70;90.30;;;;;;2097558;28;20042;-89
2021/11/16 02:34:32;;;;;;;27.08;14.45;;;6.60;90.30;;;;;;2094498;28;20499;-90
2021/11/16 02:35:32;;;;;;;26.02;15.48;;;6.70;90.30;;;;;;2090398;28;20068;-91
2021/11/16 02:36:35;;;;;;;25.38;15.60;;;6.60;90.30;;;;;;2090071;28;20025;-90
2021/11/16 02:37:36;;;;;;;25.67;14.68;;;6.60;90.30;;;;;;2082331;28;20026;-90
2021/11/16 02:38:37;;;;;;;25.65;14.35;;;6.60;90.30;;;;;;2078706;28;20033;-91
2021/11/16 02:39:38;;;;;;;25.42;14.48;;;6.70;90.50;;;;;;2098530;28;20021;-90
2021/11/16 02:40:39;;;;;;;25.30;13.75;;;6.70;90.30;;;;;;2110284;28;20020;-91
2021/11/16 02:41:43;;;;;;;27.65;15.40;;;6.60;90.30;;;;;;2106373;28;20111;-90
2021/11/16 02:42:44;;;;;;;26.48;15.05;;;6.60;90.30;;;;;;2092817;28;20075;-91
2021/11/16 02:43:44;;;;;;;27.00;15.05;;;6.60;90.20;;;;;;2090973;28;20078;-90
2021/11/16 02:44:46;;;;;;;26.52;15.23;;;6.60;90.30;;;;;;2095687;28;20483;-91
2021/11/16 02:45:48;;;;;;;25.30;14.85;;;6.60;90.30;;;;;;2097683;28;20021;-90
2021/11/16 02:46:51;;;;;;;24.73;14.73;;;6.60;90.30;;;;;;2091318;28;20048;-90
2021/11/16 02:47:51;;;;;;;28.38;15.00;;;6.60;90.30;;;;;;2098040;28;20078;-90
2021/11/16 02:48:52;;;;;;;24.50;14.20;;;6.60;90.30;;;;;;2106628;28;20032;-90
2021/11/16 02:49:56;;;;;;;26.48;15.43;;;6.60;90.60;;;;;;2106238;28;20016;-91
2021/11/16 02:51:00;;;;;;;27.90;15.13;;;6.60;90.30;;;;;;2106872;28;20039;-91
2021/11/16 02:52:00;;;;;;;26.42;14.65;;;6.60;90.30;;;;;;2111136;28;20039;-91
2021/11/16 02:53:01;;;;;;;25.45;14.57;;;6.70;90.30;;;;;;2102395;28;20029;-90
2021/11/16 02:54:11;;;;;;;25.13;14.50;;;6.60;90.30;;;;;;2091699;28;20062;-90
2021/11/16 02:55:12;;;;;;;27.35;15.35;;;6.70;90.30;;;;;;2107102;28;20075;-90
2021/11/16 02:56:12;;;;;;;26.92;14.90;;;6.70;90.30;;;;;;2095993;28;20028;-90
2021/11/16 02:57:13;;;;;;;25.30;14.43;;;6.70;90.30;;;;;;2089763;28;20025;-90
2021/11/16 02:58:16;;;;;;;27.08;15.48;;;6.70;90.30;;;;;;2098074;28;20119;-90
2021/11/16 02:59:16;;;;;;;24.55;14.68;;;6.70;90.30;;;;;;2098875;28;20027;-91
2021/11/16 03:00:19;;;;;;;26.90;15.00;;;6.70;90.30;;;;;;2100669;28;20390;-90
2021/11/16 03:01:20;;;;;;;26.00;14.07;;;6.70;90.30;;;;;;2098549;28;20067;-91
2021/11/16 03:02:21;;;;;;;27.67;15.38;;;6.70;90.30;;;;;;2098522;28;20024;-90
2021/11/16 03:03:22;;;;;;;28.50;15.85;;;6.70;90.30;;;;;;2089930;28;20024;-90
2021/11/16 03:04:23;;;;;;;28.17;15.85;;;6.70;90.30;;;;;;2099675;28;20495;-90
2021/11/16 03:05:31;;;;;;;28.17;15.07;;;6.70;90.30;;;;;;2106422;28;20428;-90
2021/11/16 03:06:32;;;;;;;28.17;15.32;;;6.70;90.30;;;;;;2091801;28;20549;-90
2021/11/16 03:07:48;;;;;;;27.52;15.02;;;6.70;90.30;;;;;;2089751;28;20021;-90
2021/11/16 03:08:49;;;;;;;25.40;14.38;;;6.70;90.30;;;;;;2099880;28;20031;-89
2021/11/16 03:09:51;;;;;;;29.00;15.27;;;6.70;90.30;;;;;;2081911;28;20128;-89
2021/11/16 03:10:55;;;;;;;27.50;15.48;;;6.70;90.30;;;;;;2090660;28;20039;-90
2021/11/16 03:11:56;;;;;;;27.17;15.10;;;6.70;90.30;;;;;;2106617;28;20111;-90
2021/11/16 03:12:58;;;;;;;27.23;15.05;;;6.70;90.30;;;;;;2103157;28;20067;-89
2021/11/16 03:13:58;;;;;;;28.08;15.38;;;6.60;90.30;;;;;;2107054;28;20312;-90
2021/11/16 03:14:59;;;;;;;28.52;16.10;;;6.60;90.30;;;;;;2104652;28;20058;-90
2021/11/16 03:16:00;;;;;;;29.20;15.93;;;6.70;90.30;;;;;;2098444;28;20032;-91
2021/11/16 03:17:00;;;;;;;26.48;15.13;;;6.60;90.30;;;;;;2088904;28;20021;-90
2021/11/16 03:18:02;;;;;;;27.95;16.13;;;6.60;90.30;;;;;;2087002;28;20080;-90
2021/11/16 03:19:02;;;;;;;29.45;15.77;;;6.60;90.30;;;;;;2106452;28;20048;-90
2021/11/16 03:20:12;;;;;;;28.38;15.48;;;6.70;90.30;;;;;;2090245;28;20036;-90
2021/11/16 03:21:13;;;;;;;28.92;15.85;;;6.60;90.30;;;;;;2092319;28;20029;-90
2021/11/16 03:22:15;;;;;;;27.50;15.60;;;6.60;90.30;;;;;;2106557;28;20521;-90
2021/11/16 03:23:22;;;;;;;29.92;16.45;;;6.60;90.30;;;;;;2094078;28;20417;-90
2021/11/16 03:24:25;;;;;;;30.17;15.68;;;6.60;90.30;;;;;;2105544;28;20066;-90
2021/11/16 03:25:32;;;;;;;30.38;16.90;;;6.60;90.30;;;;;;2106855;28;20591;-90
2021/11/16 03:26:32;;;;;;;29.10;16.42;;;6.60;90.30;;;;;;2099194;28;20048;-89
2021/11/16 03:27:36;;;;;;;28.60;16.27;;;6.60;90.30;;;;;;2094578;28;20467;-90
2021/11/16 03:28:40;;;;;;;29.77;17.02;;;6.50;90.30;;;;;;2098259;28;20496;-89
2021/11/16 03:29:47;;;;;;;32.90;18.27;;;6.60;90.30;;;;;;2114960;28;20413;-89
2021/11/16 03:30:51;;;;;;;30.25;16.77;;;6.50;90.30;;;;;;2115289;28;20126;-89
2021/11/16 03:32:04;;;;;;;27.95;16.35;;;6.50;90.30;;;;;;2115406;28;20469;-89
2021/11/16 03:33:06;;;;;;;30.17;16.05;;;6.50;90.30;;;;;;2110402;28;20504;-89
2021/11/16 03:34:07;;;;;;;28.38;16.10;;;6.50;90.30;;;;;;2102400;28;20029;-90
2021/11/16 03:35:08;;;;;;;25.67;14.65;;;6.50;90.40;;;;;;2106600;28;20028;-90
2021/11/16 03:36:09;;;;;;;26.63;15.85;;;6.40;90.40;;;;;;2099297;28;20033;-91
2021/11/16 03:37:10;;;;;;;28.02;15.43;;;6.40;90.40;;;;;;2099555;28;20121;-90
2021/11/16 03:38:13;;;;;;;27.77;15.25;;;6.40;90.40;;;;;;2096317;28;20024;-90
2021/11/16 03:39:14;;;;;;;27.15;14.30;;;6.50;90.40;;;;;;2097891;28;20033;-90
2021/11/16 03:40:17;;;;;;;25.63;14.55;;;6.50;90.40;;;;;;2115125;28;20024;-89
2021/11/16 03:41:18;;;;;;;27.23;15.02;;;6.50;90.40;;;;;;2105954;28;20039;-90
2021/11/16 03:42:19;;;;;;;25.75;13.88;;;6.50;90.40;;;;;;2108553;28;20094;-90
2021/11/16 03:43:23;;;;;;;27.58;14.45;;;6.50;90.40;;;;;;2108561;28;20105;-90
2021/11/16 03:44:25;;;;;;;24.95;14.45;;;6.50;90.70;;;;;;2105177;28;20032;-90
2021/11/16 03:45:27;;;;;;;26.38;14.57;;;6.50;90.40;;;;;;2111325;28;20472;-89
2021/11/16 03:46:28;;;;;;;25.38;14.35;;;6.50;90.70;;;;;;2117387;28;20028;-90
2021/11/16 03:47:28;;;;;;;26.67;14.63;;;6.50;90.40;;;;;;2111263;28;20451;-90
2021/11/16 03:48:30;;;;;;;25.13;14.10;;;6.50;90.40;;;;;;2097065;28;20028;-90
2021/11/16 03:49:30;;;;;;;26.40;14.60;;;6.60;90.40;;;;;;2103306;28;20063;-89
2021/11/16 03:50:32;;;;;;;25.08;14.23;;;6.60;90.40;;;;;;2105672;28;20053;-89
2021/11/16 03:51:32;;;;;;;25.58;14.25;;;6.60;90.40;;;;;;2090297;28;20471;-90
2021/11/16 03:52:38;;;;;;;24.67;14.32;;;6.60;90.40;;;;;;2090138;28;20059;-89
2021/11/16 03:53:39;;;;;;;25.30;14.85;;;6.60;90.40;;;;;;2090612;28;20499;-89
2021/11/16 03:54:39;;;;;;;25.35;14.10;;;6.60;90.40;;;;;;2085971;28;20024;-89
2021/11/16 03:55:43;;;;;;;24.45;13.05;;;6.60;90.40;;;;;;2090838;28;20026;-90
2021/11/16 03:56:43;;;;;;;26.30;14.38;;;6.60;90.40;;;;;;2106306;28;20037;-89
2021/11/16 03:57:44;;;;;;;24.40;13.88;;;6.60;90.40;;;;;;2105356;28;20025;-90
2021/11/16 03:58:46;;;;;;;24.58;13.60;;;6.60;90.30;;;;;;2100853;28;20040;-91
2021/11/16 03:59:47;;;;;;;25.55;14.27;;;6.60;90.30;;;;;;2114272;28;20027;-88
2021/11/16 04:00:52;;;;;;;23.80;13.48;;;6.60;90.30;;;;;;2121951;28;20020;-90
2021/11/16 04:01:52;;;;;;;25.45;13.85;;;6.60;90.30;;;;;;2121569;28;20058;-84
2021/11/16 04:02:53;;;;;;;25.65;14.02;;;6.60;90.30;;;;;;2113045;28;20004;-85
2021/11/16 04:03:55;;;;;;;24.58;14.05;;;6.70;90.40;;;;;;2108418;28;20037;-80
2021/11/16 04:04:56;;;;;;;25.20;14.07;;;6.70;90.40;;;;;;2117289;28;20016;-84
2021/11/16 04:05:57;;;;;;;27.23;14.05;;;6.70;90.40;;;;;;2119889;28;20014;-86
2021/11/16 04:06:58;;;;;;;24.05;13.32;;;6.70;90.60;;;;;;2122490;28;20022;-89
2021/11/16 04:07:58;;;;;;;24.52;13.90;;;6.70;90.40;;;;;;2111259;28;20027;-90
2021/11/16 04:08:59;;;;;;;24.35;14.35;;;6.70;90.30;;;;;;2104113;28;20098;-89
2021/11/16 04:10:00;;;;;;;31.98;15.30;;;6.70;90.60;;;;;;2106173;28;20027;-90
2021/11/16 04:11:03;;;;;;;26.27;14.60;;;6.70;90.30;;;;;;2089728;28;20127;-89
2021/11/16 04:12:04;;;;;;;26.92;14.70;;;6.70;90.30;;;;;;2090035;28;20072;-89
2021/11/16 04:13:05;;;;;;;26.55;15.60;;;6.70;90.30;;;;;;2093502;28;20495;-90
2021/11/16 04:14:06;;;;;;;25.33;14.77;;;6.70;90.30;;;;;;2097891;28;20025;-90
2021/11/16 04:15:08;;;;;;;28.00;14.60;;;6.60;90.30;;;;;;2089248;28;20032;-89
2021/11/16 04:16:09;;;;;;;28.30;14.98;;;6.60;90.30;;;;;;2089926;28;20021;-90
2021/11/16 04:17:09;;;;;;;26.02;14.80;;;6.60;90.40;;;;;;2106012;28;20020;-90
2021/11/16 04:18:10;;;;;;;26.70;14.60;;;6.60;90.40;;;;;;2097790;28;20028;-89
2021/11/16 04:19:11;;;;;;;24.80;14.23;;;6.60;90.40;;;;;;2105813;28;20039;-91
2021/11/16 04:20:16;;;;;;;26.10;15.07;;;6.60;90.40;;;;;;2105418;28;20028;-90
2021/11/16 04:21:17;;;;;;;26.25;14.30;;;6.70;90.40;;;;;;2106896;28;20051;-90
2021/11/16 04:22:18;;;;;;;27.20;14.70;;;6.60;90.40;;;;;;2106447;28;20032;-90
2021/11/16 04:23:18;;;;;;;25.30;14.52;;;6.70;90.40;;;;;;2113283;28;20106;-91
2021/11/16 04:24:19;;;;;;;25.60;14.13;;;6.70;90.40;;;;;;2097616;28;20055;-91
2021/11/16 04:25:20;;;;;;;25.90;14.90;;;6.70;90.40;;;;;;2104482;28;20110;-91
2021/11/16 04:26:22;;;;;;;26.13;14.50;;;6.70;90.30;;;;;;2098796;28;20100;-90
2021/11/16 04:27:23;;;;;;;25.60;14.80;;;6.70;90.40;;;;;;2106299;28;20016;-90
2021/11/16 04:28:25;;;;;;;25.33;13.77;;;6.70;90.40;;;;;;2106256;28;20104;-91
2021/11/16 04:29:25;;;;;;;27.27;14.77;;;6.70;90.40;;;;;;2105613;28;20030;-90
2021/11/16 04:30:27;;;;;;;25.08;14.32;;;6.70;90.40;;;;;;2096820;28;20025;-91
2021/11/16 04:31:28;;;;;;;25.67;15.07;;;6.70;90.40;;;;;;2097891;28;20112;-90
2021/11/16 04:32:29;;;;;;;25.50;14.15;;;6.70;90.40;;;;;;2082139;28;20036;-90
2021/11/16 04:33:31;;;;;;;26.67;14.27;;;6.60;90.40;;;;;;2089381;28;20071;-90
2021/11/16 04:34:32;;;;;;;26.10;14.27;;;6.60;90.40;;;;;;2089850;28;20037;-90
2021/11/16 04:35:33;;;;;;;25.25;14.55;;;6.60;90.40;;;;;;2082155;28;20032;-90
2021/11/16 04:36:34;;;;;;;27.50;14.95;;;6.60;90.40;;;;;;2098507;28;20048;-90
2021/11/16 04:37:38;;;;;;;28.15;14.50;;;6.70;90.40;;;;;;2090241;28;20018;-90
2021/11/16 04:38:39;;;;;;;26.38;14.07;;;6.70;90.40;;;;;;2106420;28;20052;-91
2021/11/16 04:39:42;;;;;;;26.98;14.80;;;6.60;90.40;;;;;;2104485;28;20035;-90
2021/11/16 04:40:44;;;;;;;25.77;14.40;;;6.70;90.40;;;;;;2097680;28;20557;-91
2021/11/16 04:41:45;;;;;;;24.25;14.15;;;6.70;90.40;;;;;;2090193;28;20103;-91
2021/11/16 04:42:46;;;;;;;26.83;15.00;;;6.70;90.40;;;;;;2097892;28;20037;-90
2021/11/16 04:43:47;;;;;;;26.50;14.90;;;6.70;90.40;;;;;;2103306;28;20035;-89
2021/11/16 04:44:48;;;;;;;23.67;14.15;;;6.70;90.40;;;;;;2097844;28;20098;-90
2021/11/16 04:45:53;;;;;;;28.00;15.38;;;6.70;90.40;;;;;;2081086;28;20028;-91
2021/11/16 04:46:54;;;;;;;26.70;15.13;;;6.70;90.40;;;;;;2091030;28;20021;-89
2021/11/16 04:48:01;;;;;;;28.27;14.57;;;6.70;90.40;;;;;;2089577;28;20022;-89
2021/11/16 04:50:22;;;;;;;26.65;15.00;;;6.70;90.70;;;;;;2105422;28;20024;-88
2021/11/16 05:02:36;;;;;;;28.23;15.05;;;6.60;90.30;;;;;;2107626;28;20035;-90
2021/11/16 05:03:37;;;;;;;29.30;15.05;;;6.50;90.40;;;;;;2114780;28;20027;-90
2021/11/16 05:04:38;;;;;;;28.05;14.77;;;6.50;90.40;;;;;;2110383;28;20056;-90
2021/11/16 05:05:39;;;;;;;29.55;15.70;;;6.60;90.40;;;;;;2098453;28;20111;-90
2021/11/16 05:06:39;;;;;;;24.40;14.18;;;6.50;90.40;;;;;;2102283;28;20481;-91
2021/11/16 05:07:47;;;;;;;26.67;14.45;;;6.60;90.40;;;;;;2110812;28;20039;-90
2021/11/16 05:08:49;;;;;;;28.23;14.93;;;6.50;90.50;;;;;;2105670;28;20039;-90
2021/11/16 05:09:58;;;;;;;25.92;13.70;;;6.60;90.50;;;;;;2103121;28;20020;-90
2021/11/16 05:10:59;;;;;;;27.50;14.55;;;6.60;90.50;;;;;;2114080;28;20114;-90
2021/11/16 05:11:59;;;;;;;27.80;14.88;;;6.60;90.50;;;;;;2097779;28;20508;-90
2021/11/16 05:13:00;;;;;;;29.10;14.48;;;6.60;90.50;;;;;;2090118;28;20115;-90
2021/11/16 05:14:01;;;;;;;28.65;15.88;;;6.60;90.50;;;;;;2082918;28;20490;-90
2021/11/16 05:15:06;;;;;;;28.27;15.25;;;6.60;90.50;;;;;;2090953;28;20029;-90
2021/11/16 05:16:07;;;;;;;28.90;15.15;;;6.60;90.50;;;;;;2098426;28;20024;-90
2021/11/16 05:17:08;;;;;;;28.83;15.23;;;6.60;90.50;;;;;;2098551;28;20106;-90
2021/11/16 05:18:08;;;;;;;28.75;15.70;;;6.60;90.50;;;;;;2090754;28;20048;-90
2021/11/16 05:19:09;;;;;;;30.25;15.98;;;6.60;90.50;;;;;;2097049;28;20033;-90
2021/11/16 05:20:10;;;;;;;28.73;15.80;;;6.60;90.60;;;;;;2105804;28;20470;-89
2021/11/16 05:21:12;;;;;;;29.08;16.15;;;6.60;90.60;;;;;;2107534;28;20028;-90
2021/11/16 05:22:13;;;;;;;27.67;14.48;;;6.60;90.60;;;;;;2119608;28;20015;-89
2021/11/16 05:23:15;;;;;;;27.20;15.18;;;6.60;90.60;;;;;;2110470;28;20020;-89
2021/11/16 05:24:16;;;;;;;26.70;14.70;;;6.60;90.60;;;;;;2099338;28;20091;-90
2021/11/16 05:25:17;;;;;;;27.50;15.57;;;6.50;90.60;;;;;;2108070;28;20024;-90
2021/11/16 05:26:17;;;;;;;26.90;14.77;;;6.60;90.60;;;;;;2099140;28;20031;-90
2021/11/16 05:27:19;;;;;;;27.17;15.48;;;6.60;90.60;;;;;;2097577;28;20115;-90
2021/11/16 05:28:21;;;;;;;27.95;15.07;;;6.60;90.60;;;;;;2106934;28;20021;-90
2021/11/16 05:29:22;;;;;;;27.45;15.13;;;6.60;90.60;;;;;;2102749;28;20028;-90